createdAt,value
2022-09-15T00:03:03.632Z,991.96
2022-09-15T00:08:47.195Z,991.98
2022-09-15T00:14:30.197Z,991.99
2022-09-15T00:20:13.853Z,992.04
2022-09-15T00:25:57.067Z,992.04
2022-09-15T00:31:41.245Z,992.06
2022-09-15T00:37:24.474Z,992.08
2022-09-15T00:43:09.459Z,992.07
2022-09-15T00:48:56.475Z,992.08
2022-09-15T00:54:43.303Z,992.11
2022-09-15T01:00:27.969Z,992.14
2022-09-15T01:06:13.546Z,992.06
2022-09-15T01:11:56.959Z,992.06
2022-09-15T01:17:46.074Z,992.11
2022-09-15T01:23:36.179Z,992.12
2022-09-15T01:29:39.583Z,992.13
2022-09-15T01:35:32.199Z,992.15
2022-09-15T01:41:17.447Z,992.16
2022-09-15T01:47:02.442Z,992.21
2022-09-15T01:52:47.191Z,992.19
2022-09-15T01:58:30.483Z,992.2
2022-09-15T02:04:15.478Z,992.15
2022-09-15T02:10:03.976Z,992.1
2022-09-15T02:15:49.930Z,992.1
2022-09-15T02:21:34.738Z,992.05
2022-09-15T02:27:20.303Z,992.05
2022-09-15T02:33:05.719Z,992.05
2022-09-15T02:38:51.928Z,992.03
2022-09-15T02:44:35.499Z,992.07
2022-09-15T02:50:19.134Z,992.07
2022-09-15T02:56:03.083Z,992.14
2022-09-15T03:01:46.373Z,992.21
2022-09-15T03:07:29.807Z,992.22
2022-09-15T03:13:12.979Z,992.19
2022-09-15T03:18:57.058Z,992.17
2022-09-15T03:24:40.385Z,992.24
2022-09-15T03:30:23.982Z,992.26
2022-09-15T03:36:07.717Z,992.24
2022-09-15T03:41:51.115Z,992.27
2022-09-15T03:47:34.279Z,992.23
2022-09-15T03:53:17.582Z,992.34
2022-09-15T03:59:01.243Z,992.29
2022-09-15T04:04:44.563Z,992.31
2022-09-15T04:10:27.978Z,992.32
2022-09-15T04:16:13.242Z,992.35
2022-09-15T04:21:56.722Z,992.3
2022-09-15T04:27:40.030Z,992.33
2022-09-15T04:33:23.251Z,992.34
2022-09-15T04:39:06.418Z,992.25
2022-09-15T04:44:49.761Z,992.29
2022-09-15T04:50:34.371Z,992.28
2022-09-15T04:56:20.866Z,992.31
2022-09-15T05:02:04.202Z,992.35
2022-09-15T05:07:48.204Z,992.34
2022-09-15T05:13:31.560Z,992.43
2022-09-15T05:19:14.753Z,992.39
2022-09-15T05:24:57.913Z,992.44
2022-09-15T05:30:45.469Z,992.45
2022-09-15T05:36:28.705Z,992.5
2022-09-15T05:42:12.018Z,992.52
2022-09-15T05:47:56.501Z,992.5
2022-09-15T05:53:41.724Z,992.56
2022-09-15T05:59:24.994Z,992.59
2022-09-15T06:05:08.804Z,992.58
2022-09-15T06:10:52.206Z,992.58
2022-09-15T06:16:36.090Z,992.72
2022-09-15T06:22:20.582Z,992.82
2022-09-15T06:28:03.866Z,992.9
2022-09-15T06:33:47.685Z,992.91
2022-09-15T06:39:30.956Z,993.01
2022-09-15T06:45:14.455Z,993.04
2022-09-15T06:50:58.226Z,993.08
2022-09-15T06:56:41.566Z,993.11
2022-09-15T07:02:25.234Z,993.13
2022-09-15T07:08:08.674Z,993.25
2022-09-15T07:13:53.183Z,993.26
2022-09-15T07:19:36.755Z,993.3
2022-09-15T07:25:20.224Z,993.33
2022-09-15T07:31:03.853Z,993.4
2022-09-15T07:36:46.998Z,993.48
2022-09-15T07:42:36.301Z,993.63
2022-09-15T07:48:26.300Z,993.59
2022-09-15T07:54:09.821Z,993.72
2022-09-15T07:59:53.162Z,993.79
2022-09-15T08:05:44.867Z,993.83
2022-09-15T08:11:28.606Z,993.79
2022-09-15T08:17:12.767Z,993.8
2022-09-15T08:22:56.012Z,993.88
2022-09-15T08:28:43.314Z,993.97
2022-09-15T08:34:26.846Z,994.05
2022-09-15T08:40:14.877Z,994.08
2022-09-15T08:46:01.206Z,994.19
2022-09-15T08:51:46.787Z,994.13
2022-09-15T08:57:30.017Z,994.24
2022-09-15T09:03:22.870Z,994.32
2022-09-15T09:09:25.360Z,994.35
2022-09-15T09:15:15.322Z,994.35
2022-09-15T09:21:04.033Z,994.35
2022-09-15T09:26:50.578Z,994.5
2022-09-15T09:32:39.371Z,994.47
2022-09-15T09:38:25.981Z,994.45
2022-09-15T09:44:11.270Z,994.41
2022-09-15T09:49:54.669Z,994.37
2022-09-15T09:55:37.519Z,994.38
2022-09-15T10:01:21.477Z,994.35
2022-09-15T10:07:05.229Z,994.39
2022-09-15T10:12:48.972Z,994.36
2022-09-15T10:18:33.906Z,994.25
2022-09-15T10:24:40.535Z,994.25
2022-09-15T10:30:24.955Z,994.31
2022-09-15T10:36:13.215Z,994.24
2022-09-15T10:41:59.521Z,994.18
2022-09-15T10:47:50.114Z,994.18
2022-09-15T10:53:37.596Z,994.13
2022-09-15T11:01:13.177Z,994.13
2022-09-15T11:07:02.474Z,994.09
2022-09-15T11:12:53.448Z,994.14
2022-09-15T11:18:44.069Z,994.14
2022-09-15T11:24:33.254Z,994.25
2022-09-15T11:30:21.107Z,994.28
2022-09-15T11:36:08.178Z,994.32
2022-09-15T11:41:53.917Z,994.37
2022-09-15T11:47:40.679Z,994.47
2022-09-15T11:53:28.007Z,994.53
2022-09-15T11:59:15.880Z,994.47
2022-09-15T12:05:06.086Z,994.49
2022-09-15T12:10:50.680Z,994.53
2022-09-15T12:16:34.399Z,994.48
2022-09-15T12:22:21.049Z,994.41
2022-09-15T12:28:15.965Z,994.48
2022-09-15T12:34:00.234Z,994.49
2022-09-15T12:39:45.226Z,994.5
2022-09-15T12:45:29.847Z,994.52
2022-09-15T12:51:18.165Z,994.48
2022-09-15T12:57:01.925Z,994.53
2022-09-15T13:02:47.477Z,994.68
2022-09-15T13:08:42.060Z,994.73
2022-09-15T13:14:27.783Z,994.8
2022-09-15T13:20:16.364Z,994.8
2022-09-15T13:26:00.633Z,994.85
2022-09-15T13:31:46.577Z,994.79
2022-09-15T13:43:55.019Z,994.8
2022-09-15T13:49:45.277Z,994.86
2022-09-15T13:55:29.594Z,994.82
2022-09-15T14:01:13.552Z,994.79
2022-09-15T14:07:02.018Z,994.85
2022-09-15T14:12:44.979Z,994.84
2022-09-15T14:18:29.051Z,994.83
2022-09-15T14:24:21.034Z,994.78
2022-09-15T14:30:07.615Z,994.84
2022-09-15T14:35:50.783Z,994.8
2022-09-15T14:41:36.162Z,994.77
2022-09-15T14:47:21.759Z,994.76
2022-09-15T14:53:07.119Z,994.72
2022-09-15T14:58:51.872Z,994.69
2022-09-15T15:04:39.324Z,994.8
2022-09-15T15:10:25.191Z,994.8
2022-09-15T15:16:14.804Z,994.74
2022-09-15T15:22:03.126Z,994.78
2022-09-15T15:27:51.459Z,994.71
2022-09-15T15:33:34.905Z,994.76
2022-09-15T15:39:24.166Z,994.76
2022-09-15T15:45:12.689Z,994.81
2022-09-15T15:50:56.015Z,994.86
2022-09-15T15:56:39.640Z,994.83
2022-09-15T16:02:23.182Z,994.84
2022-09-15T16:08:11.431Z,994.92
2022-09-15T16:13:54.686Z,994.93
2022-09-15T16:19:38.363Z,994.94
2022-09-15T16:25:27.698Z,994.95
2022-09-15T16:31:14.024Z,995.04
2022-09-15T16:36:57.650Z,995.19
2022-09-15T16:42:40.978Z,995.16
2022-09-15T16:48:24.347Z,995.22
2022-09-15T16:54:10.460Z,995.21
2022-09-15T16:59:53.848Z,995.13
2022-09-15T17:05:38.563Z,995.13
2022-09-15T17:11:25.636Z,995.17
2022-09-15T17:17:14.140Z,995.21
2022-09-15T17:22:58.509Z,995.26
2022-09-15T17:28:41.615Z,995.33
2022-09-15T17:34:24.912Z,995.36
2022-09-15T17:40:08.828Z,995.39
2022-09-15T17:45:52.544Z,995.38
2022-09-15T17:51:35.819Z,995.38
2022-09-15T17:57:19.114Z,995.41
2022-09-15T18:03:03.058Z,995.43
2022-09-15T18:08:46.752Z,995.5
2022-09-15T18:14:30.502Z,995.5
2022-09-15T18:20:16.221Z,995.5
2022-09-15T18:25:58.934Z,995.63
2022-09-15T18:31:42.033Z,995.72
2022-09-15T18:37:25.411Z,995.81
2022-09-15T18:43:08.826Z,995.83
2022-09-15T18:48:52.278Z,995.82
2022-09-15T18:54:36.517Z,995.86
2022-09-15T19:00:21.619Z,995.91
2022-09-15T19:06:07.262Z,995.87
2022-09-15T19:11:50.414Z,995.9
2022-09-15T19:17:34.871Z,995.91
2022-09-15T19:23:18.174Z,995.96
2022-09-15T19:29:01.552Z,996.02
2022-09-15T19:34:45.187Z,996.01
2022-09-15T19:40:28.484Z,996.04
2022-09-15T19:46:16.338Z,996.1
2022-09-15T19:51:59.883Z,996.09
2022-09-15T19:57:43.340Z,996.08
2022-09-15T20:03:27.602Z,996.13
2022-09-15T20:09:10.605Z,996.14
2022-09-15T20:14:53.973Z,996.19
2022-09-15T20:20:39.677Z,996.19
2022-09-15T20:26:23.544Z,996.19
2022-09-15T20:32:07.348Z,996.26
2022-09-15T20:37:50.622Z,996.29
2022-09-15T20:43:35.492Z,996.31
2022-09-15T20:49:19.006Z,996.37
2022-09-15T20:55:02.614Z,996.41
2022-09-15T21:00:46.840Z,996.37
2022-09-15T21:06:31.478Z,996.41
2022-09-15T21:12:14.630Z,996.41
2022-09-15T21:17:57.938Z,996.39
2022-09-15T21:23:41.687Z,996.4
2022-09-15T21:29:25.506Z,996.49
2022-09-15T21:35:09.009Z,996.49
2022-09-15T21:40:52.326Z,996.48
2022-09-15T21:46:35.715Z,996.52
2022-09-15T21:52:19.259Z,996.57
2022-09-15T21:58:02.123Z,996.59
2022-09-15T22:03:48.064Z,996.58
2022-09-15T22:09:31.258Z,996.58
2022-09-15T22:15:14.835Z,996.58
2022-09-15T22:21:08.088Z,996.53
2022-09-15T22:26:51.338Z,996.53
2022-09-15T22:32:34.497Z,996.51
2022-09-15T22:38:17.824Z,996.46
2022-09-15T22:44:01.091Z,996.47
2022-09-15T22:49:44.225Z,996.51
2022-09-15T22:55:27.223Z,996.49
2022-09-15T23:01:11.536Z,996.47
2022-09-15T23:06:54.973Z,996.47
2022-09-15T23:12:38.110Z,996.41
2022-09-15T23:18:21.190Z,996.41
2022-09-15T23:24:04.703Z,996.48
2022-09-15T23:29:47.808Z,996.53
2022-09-15T23:35:31.124Z,996.49
2022-09-15T23:41:15.190Z,996.52
2022-09-15T23:46:58.864Z,996.45
2022-09-15T23:52:42.411Z,996.42
2022-09-15T23:58:25.608Z,996.44
